sensor_id;sensor_type;location;lat;lon;timestamp;pressure;altitude;pressure_sealevel;temperature;humidity
63343;BME280;49465;57.664;39.686;2023-07-08T00:01:27;100132.94;;;24.46;56.84
63343;BME280;49465;57.664;39.686;2023-07-08T00:03:59;100128.16;;;24.41;57.21
63343;BME280;49465;57.664;39.686;2023-07-08T00:06:27;100134.16;;;24.43;56.96
63343;BME280;49465;57.664;39.686;2023-07-08T00:08:54;100127.72;;;24.38;57.42
63343;BME280;49465;57.664;39.686;2023-07-08T00:11:28;100131.75;;;24.48;57.71
63343;BME280;49465;57.664;39.686;2023-07-08T00:14:00;100129.88;;;24.49;58.05
63343;BME280;49465;57.664;39.686;2023-07-08T00:16:30;100123.59;;;24.35;57.15
63343;BME280;49465;57.664;39.686;2023-07-08T00:18:59;100129.44;;;24.45;57.80
63343;BME280;49465;57.664;39.686;2023-07-08T00:21:25;100133.66;;;24.33;58.01
63343;BME280;49465;57.664;39.686;2023-07-08T00:23:52;100133.03;;;24.31;58.27
63343;BME280;49465;57.664;39.686;2023-07-08T00:26:21;100130.72;;;24.28;58.42
63343;BME280;49465;57.664;39.686;2023-07-08T00:28:52;100124.72;;;24.26;58.61
63343;BME280;49465;57.664;39.686;2023-07-08T00:31:22;100130.84;;;24.41;58.41
63343;BME280;49465;57.664;39.686;2023-07-08T00:33:56;100131.66;;;24.42;58.14
63343;BME280;49465;57.664;39.686;2023-07-08T00:36:24;100124.53;;;24.27;58.58
63343;BME280;49465;57.664;39.686;2023-07-08T00:38:55;100127.91;;;24.36;58.69
63343;BME280;49465;57.664;39.686;2023-07-08T00:41:28;100126.25;;;24.35;58.71
63343;BME280;49465;57.664;39.686;2023-07-08T00:44:01;100125.00;;;24.31;58.29
63343;BME280;49465;57.664;39.686;2023-07-08T00:46:33;100122.19;;;24.18;58.36
63343;BME280;49465;57.664;39.686;2023-07-08T00:49:14;100130.88;;;24.48;57.68
63343;BME280;49465;57.664;39.686;2023-07-08T00:51:47;100125.06;;;24.16;58.20
63343;BME280;49465;57.664;39.686;2023-07-08T00:54:18;100126.19;;;24.28;58.13
63343;BME280;49465;57.664;39.686;2023-07-08T00:56:57;100123.00;;;24.40;57.75
63343;BME280;49465;57.664;39.686;2023-07-08T00:59:33;100129.75;;;24.36;57.14
63343;BME280;49465;57.664;39.686;2023-07-08T01:02:05;100123.84;;;24.19;57.68
63343;BME280;49465;57.664;39.686;2023-07-08T01:04:35;100119.50;;;24.18;57.90
63343;BME280;49465;57.664;39.686;2023-07-08T01:07:11;100127.41;;;24.26;57.85
63343;BME280;49465;57.664;39.686;2023-07-08T01:09:41;100115.59;;;24.20;58.57
63343;BME280;49465;57.664;39.686;2023-07-08T01:12:16;100125.31;;;24.21;57.81
63343;BME280;49465;57.664;39.686;2023-07-08T01:14:47;100105.56;;;25.07;53.19
63343;BME280;49465;57.664;39.686;2023-07-08T01:17:22;100127.03;;;24.29;57.17
63343;BME280;49465;57.664;39.686;2023-07-08T01:19:49;100113.84;;;24.06;57.65
63343;BME280;49465;57.664;39.686;2023-07-08T01:22:19;100110.06;;;24.00;57.86
63343;BME280;49465;57.664;39.686;2023-07-08T01:24:49;100115.94;;;24.11;57.73
63343;BME280;49465;57.664;39.686;2023-07-08T01:27:22;100118.06;;;24.15;57.13
63343;BME280;49465;57.664;39.686;2023-07-08T01:29:55;100122.19;;;23.96;57.58
63343;BME280;49465;57.664;39.686;2023-07-08T01:32:25;100118.50;;;23.97;58.29
63343;BME280;49465;57.664;39.686;2023-07-08T01:34:57;100135.31;;;24.13;58.06
63343;BME280;49465;57.664;39.686;2023-07-08T01:37:46;100127.91;;;24.15;58.17
63343;BME280;49465;57.664;39.686;2023-07-08T01:40:30;100130.03;;;24.19;57.52
63343;BME280;49465;57.664;39.686;2023-07-08T01:43:03;100135.06;;;24.07;57.98
63343;BME280;49465;57.664;39.686;2023-07-08T01:45:40;100139.25;;;24.17;57.03
63343;BME280;49465;57.664;39.686;2023-07-08T01:48:15;100147.06;;;24.12;57.91
63343;BME280;49465;57.664;39.686;2023-07-08T01:50:50;100151.50;;;24.04;58.69
63343;BME280;49465;57.664;39.686;2023-07-08T01:53:28;100145.78;;;24.07;58.33
63343;BME280;49465;57.664;39.686;2023-07-08T01:55:58;100144.53;;;23.88;58.09
63343;BME280;49465;57.664;39.686;2023-07-08T01:58:27;100140.56;;;23.99;58.52
63343;BME280;49465;57.664;39.686;2023-07-08T02:00:57;100147.56;;;24.00;58.26
63343;BME280;49465;57.664;39.686;2023-07-08T02:03:29;100137.72;;;23.86;58.03
63343;BME280;49465;57.664;39.686;2023-07-08T02:06:01;100151.69;;;24.03;58.14
63343;BME280;49465;57.664;39.686;2023-07-08T02:08:32;100146.72;;;24.00;58.48
63343;BME280;49465;57.664;39.686;2023-07-08T02:11:06;100149.59;;;23.98;58.03
63343;BME280;49465;57.664;39.686;2023-07-08T02:13:38;100145.06;;;23.99;58.08
63343;BME280;49465;57.664;39.686;2023-07-08T02:16:13;100150.22;;;24.00;57.92
63343;BME280;49465;57.664;39.686;2023-07-08T02:18:44;100144.75;;;24.08;57.85
63343;BME280;49465;57.664;39.686;2023-07-08T02:21:13;100148.19;;;24.02;58.59
63343;BME280;49465;57.664;39.686;2023-07-08T02:23:49;100147.44;;;24.08;57.88
63343;BME280;49465;57.664;39.686;2023-07-08T02:26:18;100153.75;;;24.94;53.37
63343;BME280;49465;57.664;39.686;2023-07-08T02:28:56;100154.19;;;24.26;57.35
63343;BME280;49465;57.664;39.686;2023-07-08T02:31:25;100151.97;;;24.08;57.84
63343;BME280;49465;57.664;39.686;2023-07-08T02:33:58;100156.41;;;24.22;58.17
63343;BME280;49465;57.664;39.686;2023-07-08T02:36:30;100167.13;;;24.22;57.84
63343;BME280;49465;57.664;39.686;2023-07-08T02:39:07;100173.22;;;24.31;58.81
63343;BME280;49465;57.664;39.686;2023-07-08T02:41:39;100167.66;;;24.33;58.80
63343;BME280;49465;57.664;39.686;2023-07-08T02:44:14;100172.94;;;24.26;58.70
63343;BME280;49465;57.664;39.686;2023-07-08T02:46:46;100173.22;;;24.31;58.47
63343;BME280;49465;57.664;39.686;2023-07-08T02:49:21;100163.34;;;24.53;57.27
63343;BME280;49465;57.664;39.686;2023-07-08T02:51:50;100171.03;;;24.41;57.55
63343;BME280;49465;57.664;39.686;2023-07-08T02:54:22;100168.16;;;24.43;58.04
63343;BME280;49465;57.664;39.686;2023-07-08T02:56:49;100170.13;;;24.34;57.74
63343;BME280;49465;57.664;39.686;2023-07-08T02:59:25;100178.00;;;24.57;57.33
63343;BME280;49465;57.664;39.686;2023-07-08T03:01:54;100170.41;;;24.39;57.72
63343;BME280;49465;57.664;39.686;2023-07-08T03:04:23;100178.19;;;24.56;58.46
63343;BME280;49465;57.664;39.686;2023-07-08T03:06:53;100167.75;;;24.46;57.49
63343;BME280;49465;57.664;39.686;2023-07-08T03:09:25;100165.53;;;24.50;57.66
63343;BME280;49465;57.664;39.686;2023-07-08T03:11:58;100176.25;;;24.71;58.24
63343;BME280;49465;57.664;39.686;2023-07-08T03:14:32;100173.22;;;24.74;58.37
63343;BME280;49465;57.664;39.686;2023-07-08T03:17:07;100181.69;;;24.78;58.02
63343;BME280;49465;57.664;39.686;2023-07-08T03:19:36;100181.06;;;24.76;58.15
63343;BME280;49465;57.664;39.686;2023-07-08T03:22:07;100170.66;;;24.66;57.85
63343;BME280;49465;57.664;39.686;2023-07-08T03:24:42;100180.81;;;24.71;57.54
63343;BME280;49465;57.664;39.686;2023-07-08T03:27:15;100172.28;;;24.89;57.26
63343;BME280;49465;57.664;39.686;2023-07-08T03:29:47;100171.38;;;24.81;56.91
63343;BME280;49465;57.664;39.686;2023-07-08T03:32:19;100180.38;;;24.95;57.19
63343;BME280;49465;57.664;39.686;2023-07-08T03:34:50;100177.88;;;24.94;57.66
63343;BME280;49465;57.664;39.686;2023-07-08T03:37:22;100178.53;;;24.96;57.96
63343;BME280;49465;57.664;39.686;2023-07-08T03:39:48;100168.31;;;24.84;57.43
63343;BME280;49465;57.664;39.686;2023-07-08T03:42:17;100172.38;;;25.02;56.94
63343;BME280;49465;57.664;39.686;2023-07-08T03:44:47;100181.88;;;25.04;57.13
63343;BME280;49465;57.664;39.686;2023-07-08T03:47:16;100168.25;;;24.99;56.38
63343;BME280;49465;57.664;39.686;2023-07-08T03:49:45;100166.13;;;24.95;57.00
63343;BME280;49465;57.664;39.686;2023-07-08T03:52:17;100175.94;;;25.09;56.49
63343;BME280;49465;57.664;39.686;2023-07-08T03:54:47;100172.22;;;25.10;56.24
63343;BME280;49465;57.664;39.686;2023-07-08T03:57:15;100168.91;;;25.08;56.68
63343;BME280;49465;57.664;39.686;2023-07-08T03:59:42;100165.56;;;24.99;56.21
63343;BME280;49465;57.664;39.686;2023-07-08T04:02:11;100173.28;;;25.16;56.50
63343;BME280;49465;57.664;39.686;2023-07-08T04:04:41;100185.03;;;25.15;56.82
63343;BME280;49465;57.664;39.686;2023-07-08T04:07:12;100179.00;;;25.06;56.60
63343;BME280;49465;57.664;39.686;2023-07-08T04:09:39;100164.75;;;25.05;56.32
63343;BME280;49465;57.664;39.686;2023-07-08T04:12:08;100171.03;;;25.19;56.71
63343;BME280;49465;57.664;39.686;2023-07-08T04:14:38;100163.53;;;25.08;56.50
63343;BME280;49465;57.664;39.686;2023-07-08T04:17:08;100155.75;;;25.13;56.06
63343;BME280;49465;57.664;39.686;2023-07-08T04:19:35;100157.78;;;25.11;56.14
63343;BME280;49465;57.664;39.686;2023-07-08T04:22:02;100159.06;;;25.15;56.10
63343;BME280;49465;57.664;39.686;2023-07-08T04:24:34;100158.63;;;25.18;55.90
63343;BME280;49465;57.664;39.686;2023-07-08T04:27:03;100155.44;;;25.30;56.26
63343;BME280;49465;57.664;39.686;2023-07-08T04:29:38;100160.69;;;25.51;55.41
63343;BME280;49465;57.664;39.686;2023-07-08T04:32:05;100153.13;;;25.26;55.92
63343;BME280;49465;57.664;39.686;2023-07-08T04:34:31;100158.13;;;25.30;56.60
63343;BME280;49465;57.664;39.686;2023-07-08T04:37:00;100156.69;;;25.34;55.90
63343;BME280;49465;57.664;39.686;2023-07-08T04:39:27;100165.19;;;25.37;55.99
63343;BME280;49465;57.664;39.686;2023-07-08T04:41:53;100158.56;;;25.40;56.13
63343;BME280;49465;57.664;39.686;2023-07-08T04:44:22;100148.47;;;25.42;55.79
63343;BME280;49465;57.664;39.686;2023-07-08T04:46:58;100142.41;;;25.75;54.87
63343;BME280;49465;57.664;39.686;2023-07-08T04:49:27;100155.41;;;25.64;55.01
63343;BME280;49465;57.664;39.686;2023-07-08T04:52:03;100148.41;;;25.70;55.13
63343;BME280;49465;57.664;39.686;2023-07-08T04:54:30;100152.25;;;25.54;55.83
63343;BME280;49465;57.664;39.686;2023-07-08T04:57:02;100158.09;;;25.64;55.58
63343;BME280;49465;57.664;39.686;2023-07-08T04:59:28;100162.75;;;25.42;55.39
63343;BME280;49465;57.664;39.686;2023-07-08T05:02:05;100157.16;;;25.44;55.42
63343;BME280;49465;57.664;39.686;2023-07-08T05:04:40;100161.38;;;25.67;55.12
63343;BME280;49465;57.664;39.686;2023-07-08T05:07:09;100156.31;;;25.37;55.27
63343;BME280;49465;57.664;39.686;2023-07-08T05:09:44;100160.28;;;25.48;55.34
63343;BME280;49465;57.664;39.686;2023-07-08T05:12:13;100154.91;;;25.48;55.37
63343;BME280;49465;57.664;39.686;2023-07-08T05:14:39;100151.16;;;25.42;54.77
63343;BME280;49465;57.664;39.686;2023-07-08T05:17:06;100148.03;;;25.38;54.92
63343;BME280;49465;57.664;39.686;2023-07-08T05:19:53;100151.66;;;25.65;54.26
63343;BME280;49465;57.664;39.686;2023-07-08T05:22:20;100152.00;;;25.42;54.56
63343;BME280;49465;57.664;39.686;2023-07-08T05:24:51;100155.50;;;25.43;55.18
63343;BME280;49465;57.664;39.686;2023-07-08T05:27:19;100156.38;;;25.50;54.64
63343;BME280;49465;57.664;39.686;2023-07-08T05:29:49;100155.34;;;25.51;54.81
63343;BME280;49465;57.664;39.686;2023-07-08T05:32:18;100162.59;;;25.57;54.42
63343;BME280;49465;57.664;39.686;2023-07-08T05:34:47;100162.81;;;25.62;54.73
63343;BME280;49465;57.664;39.686;2023-07-08T05:37:17;100162.41;;;25.65;54.41
63343;BME280;49465;57.664;39.686;2023-07-08T05:39:53;100167.19;;;25.77;53.88
63343;BME280;49465;57.664;39.686;2023-07-08T05:42:21;100162.47;;;25.79;53.81
63343;BME280;49465;57.664;39.686;2023-07-08T05:44:52;100163.13;;;25.88;53.71
63343;BME280;49465;57.664;39.686;2023-07-08T05:47:21;100166.25;;;25.91;53.27
63343;BME280;49465;57.664;39.686;2023-07-08T05:49:51;100165.56;;;25.82;53.27
63343;BME280;49465;57.664;39.686;2023-07-08T05:52:19;100175.69;;;25.87;53.28
63343;BME280;49465;57.664;39.686;2023-07-08T05:54:51;100171.22;;;26.01;53.28
63343;BME280;49465;57.664;39.686;2023-07-08T05:57:17;100162.34;;;25.94;54.02
63343;BME280;49465;57.664;39.686;2023-07-08T05:59:46;100167.91;;;25.92;53.39
63343;BME280;49465;57.664;39.686;2023-07-08T06:02:15;100167.91;;;25.92;52.93
63343;BME280;49465;57.664;39.686;2023-07-08T06:04:44;100169.97;;;25.97;53.06
63343;BME280;49465;57.664;39.686;2023-07-08T06:07:11;100161.09;;;25.96;53.23
63343;BME280;49465;57.664;39.686;2023-07-08T06:09:42;100160.72;;;26.06;52.94
63343;BME280;49465;57.664;39.686;2023-07-08T06:12:09;100161.09;;;26.03;52.46
63343;BME280;49465;57.664;39.686;2023-07-08T06:14:38;100157.81;;;26.14;52.68
63343;BME280;49465;57.664;39.686;2023-07-08T06:17:07;100162.19;;;26.22;52.54
63343;BME280;49465;57.664;39.686;2023-07-08T06:19:34;100161.16;;;26.36;52.13
63343;BME280;49465;57.664;39.686;2023-07-08T06:22:00;100158.28;;;26.44;52.76
63343;BME280;49465;57.664;39.686;2023-07-08T06:24:38;100165.16;;;26.60;51.52
63343;BME280;49465;57.664;39.686;2023-07-08T06:27:10;100171.53;;;26.59;51.66
63343;BME280;49465;57.664;39.686;2023-07-08T06:29:38;100173.41;;;26.59;50.74
63343;BME280;49465;57.664;39.686;2023-07-08T06:32:06;100172.59;;;26.58;50.87
63343;BME280;49465;57.664;39.686;2023-07-08T06:34:32;100186.59;;;26.54;50.06
63343;BME280;49465;57.664;39.686;2023-07-08T06:36:59;100185.38;;;26.56;49.93
63343;BME280;49465;57.664;39.686;2023-07-08T06:39:28;100192.81;;;26.54;50.23
63343;BME280;49465;57.664;39.686;2023-07-08T06:41:54;100191.78;;;26.55;50.15
63343;BME280;49465;57.664;39.686;2023-07-08T06:44:23;100195.28;;;26.56;50.10
63343;BME280;49465;57.664;39.686;2023-07-08T06:46:52;100199.91;;;26.62;50.40
63343;BME280;49465;57.664;39.686;2023-07-08T06:49:21;100211.47;;;26.76;50.68
63343;BME280;49465;57.664;39.686;2023-07-08T06:51:50;100203.19;;;26.71;50.41
63343;BME280;49465;57.664;39.686;2023-07-08T06:54:20;100201.75;;;26.75;50.62
63343;BME280;49465;57.664;39.686;2023-07-08T06:56:55;100198.22;;;26.74;50.91
63343;BME280;49465;57.664;39.686;2023-07-08T06:59:24;100202.78;;;26.67;50.93
63343;BME280;49465;57.664;39.686;2023-07-08T07:01:53;100195.28;;;26.56;50.70
63343;BME280;49465;57.664;39.686;2023-07-08T07:04:27;100195.34;;;26.76;50.70
63343;BME280;49465;57.664;39.686;2023-07-08T07:06:53;100192.81;;;26.54;50.50
63343;BME280;49465;57.664;39.686;2023-07-08T07:09:25;100180.19;;;26.48;50.45
63343;BME280;49465;57.664;39.686;2023-07-08T07:11:52;100195.69;;;26.46;50.78
63343;BME280;49465;57.664;39.686;2023-07-08T07:14:24;100198.19;;;26.48;50.92
63343;BME280;49465;57.664;39.686;2023-07-08T07:16:50;100206.88;;;26.50;50.74
63343;BME280;49465;57.664;39.686;2023-07-08T07:19:16;100210.81;;;26.47;50.33
63343;BME280;49465;57.664;39.686;2023-07-08T07:21:45;100208.53;;;26.51;50.63
63343;BME280;49465;57.664;39.686;2023-07-08T07:24:17;100204.78;;;26.52;50.43
63343;BME280;49465;57.664;39.686;2023-07-08T07:26:43;100210.41;;;26.57;50.13
63343;BME280;49465;57.664;39.686;2023-07-08T07:29:09;100208.78;;;26.62;50.71
63343;BME280;49465;57.664;39.686;2023-07-08T07:31:38;100204.88;;;26.72;50.12
63343;BME280;49465;57.664;39.686;2023-07-08T07:34:06;100214.56;;;26.79;50.15
63343;BME280;49465;57.664;39.686;2023-07-08T07:36:37;100208.13;;;27.00;50.72
63343;BME280;49465;57.664;39.686;2023-07-08T07:39:14;100206.06;;;27.16;49.51
63343;BME280;49465;57.664;39.686;2023-07-08T07:41:45;100203.38;;;27.09;49.33
63343;BME280;49465;57.664;39.686;2023-07-08T07:44:14;100214.13;;;27.16;49.83
63343;BME280;49465;57.664;39.686;2023-07-08T07:46:44;100203.19;;;27.04;49.78
63343;BME280;49465;57.664;39.686;2023-07-08T07:49:15;100207.31;;;27.07;48.72
63343;BME280;49465;57.664;39.686;2023-07-08T07:51:42;100218.06;;;27.07;48.98
63343;BME280;49465;57.664;39.686;2023-07-08T07:54:10;100218.28;;;27.05;48.79
63343;BME280;49465;57.664;39.686;2023-07-08T07:56:39;100219.91;;;27.13;48.82
63343;BME280;49465;57.664;39.686;2023-07-08T07:59:06;100223.25;;;27.01;48.61
63343;BME280;49465;57.664;39.686;2023-07-08T08:01:35;100219.09;;;27.12;48.43
63343;BME280;49465;57.664;39.686;2023-07-08T08:04:06;100223.66;;;27.12;49.20
63343;BME280;49465;57.664;39.686;2023-07-08T08:06:38;100225.28;;;27.13;48.87
63343;BME280;49465;57.664;39.686;2023-07-08T08:09:07;100219.28;;;27.11;48.38
63343;BME280;49465;57.664;39.686;2023-07-08T08:11:40;100225.09;;;27.14;48.64
63343;BME280;49465;57.664;39.686;2023-07-08T08:14:14;100230.91;;;27.11;48.43
63343;BME280;49465;57.664;39.686;2023-07-08T08:16:41;100227.38;;;27.04;48.52
63343;BME280;49465;57.664;39.686;2023-07-08T08:19:09;100227.59;;;27.09;48.37
63343;BME280;49465;57.664;39.686;2023-07-08T08:21:44;100224.28;;;27.14;48.09
63343;BME280;49465;57.664;39.686;2023-07-08T08:24:13;100219.94;;;27.06;48.39
63343;BME280;49465;57.664;39.686;2023-07-08T08:26:42;100224.91;;;27.09;48.26
63343;BME280;49465;57.664;39.686;2023-07-08T08:29:11;100216.63;;;27.04;48.41
63343;BME280;49465;57.664;39.686;2023-07-08T08:31:43;100223.03;;;27.10;47.86
63343;BME280;49465;57.664;39.686;2023-07-08T08:34:12;100223.03;;;26.96;48.72
63343;BME280;49465;57.664;39.686;2023-07-08T08:36:43;100217.47;;;27.11;47.87
63343;BME280;49465;57.664;39.686;2023-07-08T08:39:15;100213.13;;;27.03;48.83
63343;BME280;49465;57.664;39.686;2023-07-08T08:41:47;100223.84;;;27.23;48.20
63343;BME280;49465;57.664;39.686;2023-07-08T08:44:32;100228.81;;;27.40;47.93
63343;BME280;49465;57.664;39.686;2023-07-08T08:52:57;100223.84;;;27.37;47.01
63343;BME280;49465;57.664;39.686;2023-07-08T08:55:30;100226.72;;;27.49;46.53
63343;BME280;49465;57.664;39.686;2023-07-08T09:00:54;100223.91;;;27.89;46.77
63343;BME280;49465;57.664;39.686;2023-07-08T09:04:01;100221.63;;;27.92;46.55
63343;BME280;49465;57.664;39.686;2023-07-08T09:06:34;100226.19;;;27.78;47.31
63343;BME280;49465;57.664;39.686;2023-07-08T09:09:15;100222.03;;;27.89;46.90
63343;BME280;49465;57.664;39.686;2023-07-08T09:12:06;100216.78;;;28.01;46.70
63343;BME280;49465;57.664;39.686;2023-07-08T09:14:38;100223.09;;;27.88;45.96
63343;BME280;49465;57.664;39.686;2023-07-08T09:17:26;100222.72;;;28.23;46.15
63343;BME280;49465;57.664;39.686;2023-07-08T09:20:27;100217.47;;;28.28;46.04
63343;BME280;49465;57.664;39.686;2023-07-08T09:23:15;100218.06;;;28.30;45.90
63343;BME280;49465;57.664;39.686;2023-07-08T09:28:21;100223.94;;;28.20;46.04
63343;BME280;49465;57.664;39.686;2023-07-08T09:30:51;100226.06;;;28.12;45.82
63343;BME280;49465;57.664;39.686;2023-07-08T09:33:24;100232.94;;;28.08;45.81
63343;BME280;49465;57.664;39.686;2023-07-08T09:35:53;100229.03;;;27.97;46.79
63343;BME280;49465;57.664;39.686;2023-07-08T09:38:23;100224.88;;;28.01;46.34
63343;BME280;49465;57.664;39.686;2023-07-08T09:40:56;100232.72;;;28.09;46.12
63343;BME280;49465;57.664;39.686;2023-07-08T09:43:26;100225.13;;;27.99;46.18
63343;BME280;49465;57.664;39.686;2023-07-08T09:45:58;100226.03;;;28.18;46.01
63343;BME280;49465;57.664;39.686;2023-07-08T09:48:29;100231.72;;;28.04;45.93
63343;BME280;49465;57.664;39.686;2023-07-08T09:51:03;100239.91;;;28.22;46.19
63343;BME280;49465;57.664;39.686;2023-07-08T09:53:29;100230.25;;;28.01;46.25
63343;BME280;49465;57.664;39.686;2023-07-08T09:56:00;100238.28;;;28.14;45.97
63343;BME280;49465;57.664;39.686;2023-07-08T09:58:41;100234.78;;;28.46;46.20
63343;BME280;49465;57.664;39.686;2023-07-08T10:01:17;100238.34;;;28.01;46.35
63343;BME280;49465;57.664;39.686;2023-07-08T10:03:50;100235.91;;;27.86;45.84
63343;BME280;49465;57.664;39.686;2023-07-08T10:06:28;100235.69;;;27.94;46.05
63343;BME280;49465;57.664;39.686;2023-07-08T10:09:12;100239.25;;;27.81;46.40
63343;BME280;49465;57.664;39.686;2023-07-08T10:11:56;100236.19;;;27.65;46.39
63343;BME280;49465;57.664;39.686;2023-07-08T10:14:35;100242.22;;;27.53;47.30
63343;BME280;49465;57.664;39.686;2023-07-08T10:17:07;100239.53;;;27.53;47.61
63343;BME280;49465;57.664;39.686;2023-07-08T10:19:37;100233.56;;;27.38;47.83
63343;BME280;49465;57.664;39.686;2023-07-08T10:31:31;100235.31;;;27.77;47.21
63343;BME280;49465;57.664;39.686;2023-07-08T10:37:16;100239.00;;;28.03;46.67
63343;BME280;49465;57.664;39.686;2023-07-08T10:40:02;100236.94;;;28.30;46.70
63343;BME280;49465;57.664;39.686;2023-07-08T10:45:20;100236.41;;;28.53;45.69
63343;BME280;49465;57.664;39.686;2023-07-08T10:50:43;100241.34;;;28.63;45.55
63343;BME280;49465;57.664;39.686;2023-07-08T10:53:57;100243.22;;;28.88;44.72
63343;BME280;49465;57.664;39.686;2023-07-08T11:07:53;100250.53;;;28.17;45.70
63343;BME280;49465;57.664;39.686;2023-07-08T11:10:34;100267.16;;;28.00;45.65
63343;BME280;49465;57.664;39.686;2023-07-08T11:13:14;100272.13;;;28.04;45.46
63343;BME280;49465;57.664;39.686;2023-07-08T11:19:03;100262.31;;;27.57;45.82
63343;BME280;49465;57.664;39.686;2023-07-08T11:21:22;100263.34;;;27.70;45.75
63343;BME280;49465;57.664;39.686;2023-07-08T11:27:06;100272.34;;;28.02;45.00
63343;BME280;49465;57.664;39.686;2023-07-08T11:29:48;100270.13;;;27.86;43.97
63343;BME280;49465;57.664;39.686;2023-07-08T11:32:25;100266.59;;;27.92;44.62
63343;BME280;49465;57.664;39.686;2023-07-08T11:34:55;100267.25;;;27.67;44.60
63343;BME280;49465;57.664;39.686;2023-07-08T11:37:29;100256.88;;;27.71;45.09
63343;BME280;49465;57.664;39.686;2023-07-08T11:40:24;100262.69;;;27.74;44.58
63343;BME280;49465;57.664;39.686;2023-07-08T11:43:12;100262.44;;;27.89;44.86
63343;BME280;49465;57.664;39.686;2023-07-08T11:45:48;100252.31;;;27.71;45.48
63343;BME280;49465;57.664;39.686;2023-07-08T11:48:39;100260.16;;;27.86;45.25
63343;BME280;49465;57.664;39.686;2023-07-08T11:51:09;100256.47;;;27.74;45.29
63343;BME280;49465;57.664;39.686;2023-07-08T11:53:58;100248.28;;;28.07;44.78
63343;BME280;49465;57.664;39.686;2023-07-08T11:57:07;100251.50;;;28.61;44.11
63343;BME280;49465;57.664;39.686;2023-07-08T11:59:42;100245.41;;;28.72;43.75
63343;BME280;49465;57.664;39.686;2023-07-08T12:02:19;100244.81;;;28.95;43.55
63343;BME280;49465;57.664;39.686;2023-07-08T12:05:12;100246.03;;;29.25;43.73
63343;BME280;49465;57.664;39.686;2023-07-08T12:07:58;100242.81;;;29.53;42.94
63343;BME280;49465;57.664;39.686;2023-07-08T12:10:39;100244.47;;;29.35;42.80
63343;BME280;49465;57.664;39.686;2023-07-08T12:13:18;100237.00;;;29.56;42.79
63343;BME280;49465;57.664;39.686;2023-07-08T12:15:44;100230.44;;;29.45;42.40
63343;BME280;49465;57.664;39.686;2023-07-08T12:18:17;100233.97;;;29.64;42.10
63343;BME280;49465;57.664;39.686;2023-07-08T12:20:55;100238.09;;;29.67;41.71
63343;BME280;49465;57.664;39.686;2023-07-08T12:23:29;100233.59;;;29.61;41.52
63343;BME280;49465;57.664;39.686;2023-07-08T12:25:58;100220.03;;;29.49;41.48
63343;BME280;49465;57.664;39.686;2023-07-08T12:28:25;100228.72;;;29.51;41.65
63343;BME280;49465;57.664;39.686;2023-07-08T12:30:52;100229.91;;;29.55;41.34
63343;BME280;49465;57.664;39.686;2023-07-08T12:33:33;100231.50;;;29.63;41.41
63343;BME280;49465;57.664;39.686;2023-07-08T12:36:03;100219.44;;;29.47;41.47
63343;BME280;49465;57.664;39.686;2023-07-08T12:38:40;100229.53;;;29.51;41.71
63343;BME280;49465;57.664;39.686;2023-07-08T12:41:20;100220.41;;;29.52;41.23
63343;BME280;49465;57.664;39.686;2023-07-08T12:43:52;100206.91;;;29.52;41.89
63343;BME280;49465;57.664;39.686;2023-07-08T12:46:21;100214.56;;;29.74;41.67
63343;BME280;49465;57.664;39.686;2023-07-08T12:48:50;100213.06;;;29.78;41.90
63343;BME280;49465;57.664;39.686;2023-07-08T12:51:23;100224.78;;;30.02;41.57
63343;BME280;49465;57.664;39.686;2023-07-08T12:53:53;100209.22;;;30.16;41.77
63343;BME280;49465;57.664;39.686;2023-07-08T12:56:22;100208.88;;;30.43;41.68
63343;BME280;49465;57.664;39.686;2023-07-08T12:58:52;100208.91;;;30.66;41.13
63343;BME280;49465;57.664;39.686;2023-07-08T13:01:29;100201.06;;;31.00;41.25
63343;BME280;49465;57.664;39.686;2023-07-08T13:04:03;100202.13;;;31.23;41.21
63343;BME280;49465;57.664;39.686;2023-07-08T13:06:37;100201.38;;;31.39;40.47
63343;BME280;49465;57.664;39.686;2023-07-08T13:09:11;100200.91;;;31.42;39.37
63343;BME280;49465;57.664;39.686;2023-07-08T13:11:45;100195.94;;;31.63;39.73
63343;BME280;49465;57.664;39.686;2023-07-08T13:14:15;100195.31;;;31.72;39.07
63343;BME280;49465;57.664;39.686;2023-07-08T13:16:43;100199.81;;;31.67;38.54
63343;BME280;49465;57.664;39.686;2023-07-08T13:19:15;100204.91;;;31.92;38.54
63343;BME280;49465;57.664;39.686;2023-07-08T13:21:45;100205.13;;;31.62;38.06
63343;BME280;49465;57.664;39.686;2023-07-08T13:24:14;100204.88;;;31.63;38.08
63343;BME280;49465;57.664;39.686;2023-07-08T13:26:47;100201.34;;;31.63;38.34
63343;BME280;49465;57.664;39.686;2023-07-08T13:29:21;100202.78;;;31.53;37.64
63343;BME280;49465;57.664;39.686;2023-07-08T13:32:01;100202.44;;;31.50;36.88
63343;BME280;49465;57.664;39.686;2023-07-08T13:34:28;100199.97;;;31.37;38.10
63343;BME280;49465;57.664;39.686;2023-07-08T13:36:55;100190.09;;;31.42;38.38
63343;BME280;49465;57.664;39.686;2023-07-08T13:39:27;100202.25;;;31.80;38.43
63343;BME280;49465;57.664;39.686;2023-07-08T13:41:58;100202.25;;;31.80;38.51
63343;BME280;49465;57.664;39.686;2023-07-08T13:44:31;100208.78;;;31.96;38.63
63343;BME280;49465;57.664;39.686;2023-07-08T13:47:01;100203.81;;;31.93;37.08
63343;BME280;49465;57.664;39.686;2023-07-08T13:49:47;100203.44;;;32.30;37.23
63343;BME280;49465;57.664;39.686;2023-07-08T13:52:21;100209.75;;;31.90;37.17
63343;BME280;49465;57.664;39.686;2023-07-08T13:54:49;100197.59;;;31.64;37.38